Time;durP1;ratioP1;P1;durP2;ratioP2;P2;SDS_P1;SDS_P2;PMS_P1;PMS_P2;Temp;Humidity;BMP_temperature;BMP_pressure;BME280_temperature;BME280_humidity;BME280_pressure;Samples;Min_cycle;Max_cycle;Signal;HPM_P1;HPM_P2
2022/11/27 00:15:56;;;;;;;15.80;9.03;;;;;;;-0.62;100.00;101065.27;1823271;76;21959;-89
2022/11/27 00:18:23;;;;;;;18.77;11.25;;;;;;;0.01;100.00;101074.03;1744142;81;21084;-89
2022/11/27 00:20:49;;;;;;;15.50;8.73;;;;;;;0.33;100.00;101077.70;1726565;80;21269;-89
2022/11/27 00:23:17;;;;;;;15.38;8.90;;;;;;;0.41;100.00;101073.53;1765345;78;21045;-91
2022/11/27 00:25:51;;;;;;;13.95;7.67;;;;;;;0.61;100.00;101072.20;1763290;78;21013;-91
2022/11/27 00:28:18;;;;;;;12.40;8.23;;;;;;;0.65;100.00;101074.87;1767086;78;21111;-91
2022/11/27 00:30:45;;;;;;;14.18;8.55;;;;;;;0.88;100.00;101070.96;1764194;78;21072;-91
2022/11/27 00:33:12;;;;;;;12.78;8.40;;;;;;;1.13;100.00;101080.44;1757403;78;21198;-89
2022/11/27 00:35:38;;;;;;;12.80;7.75;;;;;;;1.30;100.00;101075.11;1751993;80;21060;-90
2022/11/27 00:38:07;;;;;;;13.32;7.67;;;;;;;1.42;100.00;101076.59;1756830;78;21151;-91
2022/11/27 00:40:33;;;;;;;11.83;7.67;;;;;;;1.57;100.00;101077.70;1766108;78;21024;-90
2022/11/27 00:43:01;;;;;;;10.85;7.12;;;;;;;1.52;100.00;101070.23;1762947;78;21086;-90
2022/11/27 00:45:28;;;;;;;10.40;6.65;;;;;;;1.48;100.00;101076.27;1757928;78;21224;-89
2022/11/27 00:47:54;;;;;;;15.70;8.15;;;;;;;1.51;100.00;101068.51;1739226;80;21073;-89
2022/11/27 00:50:21;;;;;;;11.73;7.53;;;;;;;1.66;100.00;101071.34;1734869;80;21106;-93
2022/11/27 00:52:47;;;;;;;11.10;6.80;;;;;;;1.70;100.00;101072.23;1738514;80;21161;-90
2022/11/27 00:55:14;;;;;;;11.00;6.37;;;;;;;1.52;100.00;101071.53;1731918;80;21061;-90
2022/11/27 00:57:41;;;;;;;11.10;6.30;;;;;;;1.59;100.00;101064.31;1734204;80;21182;-92
2022/11/27 01:00:09;;;;;;;11.22;6.47;;;;;;;1.59;100.00;101064.31;1737956;80;21050;-91
2022/11/27 01:02:35;;;;;;;10.60;6.65;;;;;;;1.51;100.00;101062.88;1769706;79;21057;-90
2022/11/27 01:05:02;;;;;;;10.45;6.17;;;;;;;1.52;100.00;101066.34;1772436;79;21046;-90
2022/11/27 01:07:30;;;;;;;9.58;6.50;;;;;;;1.49;100.00;101055.50;1767519;79;21070;-89
2022/11/27 01:09:58;;;;;;;11.15;5.75;;;;;;;1.52;100.00;101060.75;1761833;79;21309;-90
2022/11/27 01:12:25;;;;;;;11.22;6.40;;;;;;;1.48;100.00;101058.95;1765977;79;21626;-90
2022/11/27 01:14:52;;;;;;;10.88;6.40;;;;;;;1.60;100.00;101055.66;1765103;79;21034;-91
2022/11/27 01:17:18;;;;;;;13.58;6.75;;;;;;;1.61;100.00;101055.70;1767514;81;21061;-91
2022/11/27 01:19:45;;;;;;;9.88;6.08;;;;;;;1.70;100.00;101052.33;1766617;79;21037;-90
2022/11/27 01:22:11;;;;;;;12.78;7.05;;;;;;;1.44;100.00;101052.83;1766655;81;21120;-90
2022/11/27 01:24:38;;;;;;;10.15;5.80;;;;;;;1.35;100.00;101063.07;1769189;81;21073;-89
2022/11/27 01:27:04;;;;;;;11.08;5.80;;;;;;;1.42;100.00;101059.72;1761933;79;21775;-90
2022/11/27 01:29:31;;;;;;;9.23;5.83;;;;;;;1.39;100.00;101064.01;1764059;79;21007;-90
2022/11/27 01:31:58;;;;;;;10.00;5.53;;;;;;;1.23;100.00;101057.70;1769139;79;21089;-91
2022/11/27 01:34:24;;;;;;;8.88;5.80;;;;;;;1.40;100.00;101064.44;1769871;79;21047;-88
2022/11/27 01:36:50;;;;;;;9.50;6.45;;;;;;;1.43;100.00;101061.91;1765731;79;20987;-89
2022/11/27 01:39:19;;;;;;;10.45;5.42;;;;;;;1.41;100.00;101064.91;1771706;81;21039;-89
2022/11/27 01:41:46;;;;;;;11.00;6.20;;;;;;;1.29;100.00;101061.70;1772321;79;21029;-89
2022/11/27 01:44:33;;;;;;;7.33;5.12;;;;;;;1.28;100.00;101069.02;1766470;79;21157;-90
2022/11/27 01:47:06;;;;;;;9.08;5.40;;;;;;;1.35;100.00;101065.67;1765717;80;21073;-90
2022/11/27 01:49:45;;;;;;;8.15;4.87;;;;;;;1.37;100.00;101061.38;1766682;79;20995;-91
2022/11/27 01:52:29;;;;;;;11.67;6.23;;;;;;;1.25;100.00;101059.90;1770019;80;20998;-90
2022/11/27 01:55:00;;;;;;;9.63;5.28;;;;;;;1.12;100.00;101062.70;1770444;79;20983;-87
2022/11/27 01:57:34;;;;;;;12.47;5.62;;;;;;;1.25;100.00;101065.09;1769151;80;20986;-90
2022/11/27 02:00:01;;;;;;;8.90;5.53;;;;;;;1.27;100.00;101060.80;1772388;81;21226;-91
2022/11/27 02:02:28;;;;;;;9.13;5.37;;;;;;;1.27;100.00;101059.50;1734749;80;21057;-88
2022/11/27 02:04:56;;;;;;;10.20;5.55;;;;;;;1.42;100.00;101058.42;1708196;80;21038;-90
2022/11/27 02:07:23;;;;;;;9.15;5.08;;;;;;;1.42;100.00;101062.31;1693775;82;21213;-89
2022/11/27 02:09:50;;;;;;;7.80;5.42;;;;;;;1.39;100.00;101060.98;1698933;83;21091;-87
2022/11/27 02:12:29;;;;;;;9.33;4.67;;;;;;;1.39;100.00;101059.68;1693601;84;21976;-89
2022/11/27 02:15:35;;;;;;;8.38;4.55;;;;;;;1.41;100.00;101052.80;1693902;82;20980;-90
2022/11/27 02:18:22;;;;;;;6.37;4.70;;;;;;;1.55;100.00;101059.92;1689489;82;21063;-89
2022/11/27 06:23:59;;;;;;;6.20;4.83;;;;;;;-0.86;100.00;101119.45;1884246;74;23131;-87
2022/11/27 06:26:28;;;;;;;7.42;5.20;;;;;;;-0.62;100.00;101119.60;1841831;76;21008;-88
2022/11/27 06:28:55;;;;;;;8.83;5.22;;;;;;;-0.44;100.00;101121.34;1826191;78;21123;-89
2022/11/27 06:31:24;;;;;;;5.90;4.83;;;;;;;0.22;100.00;101118.93;1825711;78;21039;-89
2022/11/27 06:33:52;;;;;;;6.42;4.70;;;;;;;0.34;100.00;101123.48;1826283;78;21087;-89
2022/11/27 06:36:20;;;;;;;6.55;4.67;;;;;;;0.40;100.00;101116.72;1825516;78;21579;-90
2022/11/27 06:38:48;;;;;;;5.08;4.15;;;;;;;0.39;100.00;101120.56;1826061;78;20984;-88
2022/11/27 06:41:20;;;;;;;6.92;4.78;;;;;;;0.51;100.00;101123.42;1825968;78;21147;-89
2022/11/27 06:43:46;;;;;;;5.70;4.58;;;;;;;0.73;100.00;101119.94;1826057;78;20960;-90
2022/11/27 06:46:16;;;;;;;4.55;3.52;;;;;;;0.76;100.00;101119.98;1821880;78;21027;-90
2022/11/27 06:48:44;;;;;;;3.90;3.10;;;;;;;0.77;100.00;101119.16;1819482;78;21019;-89
2022/11/27 06:51:22;;;;;;;5.17;3.62;;;;;;;0.91;100.00;101122.01;1819017;78;21006;-90
2022/11/27 06:53:53;;;;;;;4.33;3.35;;;;;;;0.92;100.00;101122.44;1820006;78;21381;-89
2022/11/27 06:56:23;;;;;;;4.78;3.83;;;;;;;0.89;100.00;101123.27;1818413;78;21050;-89
2022/11/27 06:58:52;;;;;;;6.42;4.10;;;;;;;0.95;100.00;101122.09;1818520;78;21292;-89
2022/11/27 07:01:18;;;;;;;3.80;3.12;;;;;;;0.99;100.00;101125.20;1818414;78;21062;-90
2022/11/27 07:03:45;;;;;;;5.05;3.50;;;;;;;0.99;100.00;101123.00;1819166;78;21031;-90
2022/11/27 07:06:16;;;;;;;5.30;3.50;;;;;;;1.01;100.00;101127.40;1819497;78;21214;-89
2022/11/27 07:08:45;;;;;;;6.67;3.25;;;;;;;0.97;100.00;101128.19;1819563;78;20983;-89
2022/11/27 07:11:14;;;;;;;4.55;3.22;;;;;;;1.03;100.00;101129.56;1819190;78;21635;-89
2022/11/27 07:13:40;;;;;;;3.72;3.27;;;;;;;1.10;100.00;101127.09;1818794;78;20998;-90
2022/11/27 07:16:09;;;;;;;5.25;3.55;;;;;;;1.04;100.00;101122.25;1818836;78;21242;-91
2022/11/27 07:18:41;;;;;;;4.35;3.20;;;;;;;1.00;100.00;101129.52;1818728;78;21039;-89
2022/11/27 07:21:08;;;;;;;4.15;3.20;;;;;;;1.01;100.00;101123.51;1818827;78;21089;-90
2022/11/27 07:23:37;;;;;;;4.10;3.05;;;;;;;1.08;100.00;101124.89;1821817;78;21483;-89
2022/11/27 07:26:10;;;;;;;3.72;3.33;;;;;;;1.08;100.00;101119.70;1822969;78;20998;-90
2022/11/27 07:28:36;;;;;;;5.12;3.25;;;;;;;1.10;100.00;101128.39;1822674;78;21054;-89
2022/11/27 07:31:05;;;;;;;4.30;3.42;;;;;;;1.11;100.00;101124.53;1822593;78;21063;-91
2022/11/27 07:33:32;;;;;;;4.08;3.12;;;;;;;0.98;100.00;101127.32;1822149;78;21070;-91
2022/11/27 07:36:15;;;;;;;5.15;3.87;;;;;;;1.00;100.00;101121.74;1821774;78;21014;-89
2022/11/27 07:38:42;;;;;;;3.98;3.20;;;;;;;1.02;100.00;101129.13;1822112;78;20977;-89
2022/11/27 07:41:09;;;;;;;4.37;3.52;;;;;;;1.02;100.00;101128.27;1824585;78;21042;-89
2022/11/27 07:43:35;;;;;;;4.65;2.95;;;;;;;1.06;100.00;101119.70;1823228;78;21187;-89
2022/11/27 07:46:03;;;;;;;5.45;3.75;;;;;;;1.08;100.00;101127.48;1822323;78;21050;-89
2022/11/27 07:48:30;;;;;;;5.70;3.72;;;;;;;1.10;100.00;101128.39;1826198;77;21067;-90
2022/11/27 07:50:56;;;;;;;3.92;3.45;;;;;;;0.99;100.00;101126.50;1821897;78;20980;-90
2022/11/27 07:53:23;;;;;;;4.58;3.50;;;;;;;1.12;100.00;101127.56;1822110;78;21035;-91
2022/11/27 07:55:49;;;;;;;4.47;3.77;;;;;;;1.27;100.00;101132.16;1822399;78;21770;-89
2022/11/27 07:58:16;;;;;;;6.72;4.45;;;;;;;1.26;100.00;101130.40;1821489;78;21003;-89
2022/11/27 08:00:42;;;;;;;4.53;3.85;;;;;;;1.25;100.00;101136.45;1825750;78;20961;-90
2022/11/27 08:03:09;;;;;;;6.75;4.40;;;;;;;1.35;100.00;101135.74;1825938;78;20973;-91
2022/11/27 08:05:37;;;;;;;5.37;4.20;;;;;;;1.17;100.00;101133.70;1826255;78;21091;-90
2022/11/27 08:08:06;;;;;;;5.03;3.80;;;;;;;1.25;100.00;101133.42;1826351;78;21263;-89
2022/11/27 08:10:36;;;;;;;4.75;3.80;;;;;;;1.32;100.00;101137.44;1826034;78;20929;-90
2022/11/27 08:13:03;;;;;;;5.33;4.20;;;;;;;1.42;100.00;101140.19;1800979;78;20948;-89
2022/11/27 08:15:30;;;;;;;4.95;4.10;;;;;;;1.39;100.00;101142.74;1824685;78;21066;-89
2022/11/27 08:17:57;;;;;;;3.75;3.17;;;;;;;1.41;100.00;101138.45;1820165;77;21065;-89
2022/11/27 08:20:24;;;;;;;4.72;3.70;;;;;;;1.43;100.00;101138.48;1819757;77;21175;-90
2022/11/27 08:22:51;;;;;;;4.12;3.65;;;;;;;1.37;100.00;101135.78;1818678;77;20971;-89
2022/11/27 08:25:18;;;;;;;5.10;3.70;;;;;;;1.39;100.00;101140.14;1815460;77;21026;-90
2022/11/27 08:27:47;;;;;;;4.22;3.27;;;;;;;1.40;100.00;101139.31;1815032;77;21001;-90
2022/11/27 08:30:13;;;;;;;4.65;3.35;;;;;;;1.39;100.00;101136.25;1815268;77;21033;-89
2022/11/27 08:32:41;;;;;;;3.77;3.47;;;;;;;1.44;100.00;101137.20;1815531;77;21199;-90
2022/11/27 08:35:07;;;;;;;5.10;3.37;;;;;;;1.45;100.00;101140.26;1814268;79;21011;-90
2022/11/27 08:37:34;;;;;;;3.72;3.20;;;;;;;1.45;100.00;101137.66;1811651;79;20994;-89
2022/11/27 08:40:02;;;;;;;4.97;3.92;;;;;;;1.51;100.00;101142.06;1811194;79;21529;-89
2022/11/27 08:42:29;;;;;;;3.35;3.00;;;;;;;1.62;100.00;101136.62;1810921;79;21117;-90
2022/11/27 08:44:56;;;;;;;4.42;3.40;;;;;;;1.65;100.00;101131.90;1814330;79;21266;-89
2022/11/27 08:47:22;;;;;;;3.85;3.08;;;;;;;1.62;100.00;101134.45;1815304;77;21001;-90
2022/11/27 08:49:48;;;;;;;4.20;3.08;;;;;;;1.65;100.00;101131.46;1815360;77;20999;-89
2022/11/27 08:52:15;;;;;;;3.20;2.65;;;;;;;1.68;100.00;101133.27;1815342;79;20982;-90
2022/11/27 08:54:42;;;;;;;4.17;3.12;;;;;;;1.66;100.00;101137.12;1815347;79;21008;-89
2022/11/27 08:57:08;;;;;;;4.25;3.17;;;;;;;1.57;100.00;101137.41;1815329;79;21050;-89
2022/11/27 08:59:36;;;;;;;3.75;2.92;;;;;;;1.53;100.00;101131.72;1814388;79;21038;-89
2022/11/27 09:02:04;;;;;;;4.10;3.70;;;;;;;1.52;100.00;101133.84;1811525;79;21085;-90
2022/11/27 09:04:30;;;;;;;4.62;3.70;;;;;;;1.51;100.00;101136.88;1810987;79;21531;-89
2022/11/27 09:06:57;;;;;;;5.03;3.30;;;;;;;1.60;100.00;101133.55;1810979;79;21476;-89
2022/11/27 09:09:25;;;;;;;5.22;3.60;;;;;;;1.57;100.00;101133.52;1811126;79;21836;-88
2022/11/27 09:11:55;;;;;;;4.28;3.42;;;;;;;1.61;100.00;101134.89;1810918;79;21018;-88
2022/11/27 09:14:21;;;;;;;4.20;3.40;;;;;;;1.59;100.00;101134.42;1811675;79;21424;-89
2022/11/27 09:16:48;;;;;;;5.03;3.60;;;;;;;1.53;100.00;101129.13;1811583;79;21045;-87
2022/11/27 09:19:14;;;;;;;4.53;3.70;;;;;;;1.44;100.00;101132.44;1811016;79;21053;-90
2022/11/27 09:21:42;;;;;;;4.05;3.10;;;;;;;1.41;100.00;101129.37;1811385;79;21112;-90
2022/11/27 09:24:09;;;;;;;4.37;3.35;;;;;;;1.42;100.00;101128.94;1813421;79;21089;-89
2022/11/27 09:26:35;;;;;;;4.45;3.33;;;;;;;1.41;100.00;101125.48;1814263;79;21723;-90
2022/11/27 09:29:02;;;;;;;3.60;3.30;;;;;;;1.45;100.00;101123.38;1814673;79;21025;-89
2022/11/27 09:31:29;;;;;;;4.08;3.25;;;;;;;1.49;100.00;101127.31;1815350;79;21057;-89
2022/11/27 09:33:57;;;;;;;3.98;3.02;;;;;;;1.46;100.00;101129.02;1816362;79;21152;-89
2022/11/27 09:36:24;;;;;;;4.28;3.27;;;;;;;1.46;100.00;101126.41;1816265;79;21049;-89
2022/11/27 09:38:51;;;;;;;3.70;3.25;;;;;;;1.52;100.00;101128.66;1816683;79;22318;-90
2022/11/27 09:41:51;;;;;;;3.17;2.77;;;;;;;1.45;100.00;101127.28;1814949;79;21065;-90
2022/11/27 09:44:29;;;;;;;3.95;3.27;;;;;;;1.44;100.00;101126.81;1813578;79;21017;-89
2022/11/27 09:46:59;;;;;;;4.22;3.20;;;;;;;1.43;100.00;101134.16;1813981;79;21196;-89
2022/11/27 09:49:37;;;;;;;4.62;4.10;;;;;;;1.45;100.00;101131.17;1814699;79;21100;-90
2022/11/27 09:52:16;;;;;;;3.20;2.90;;;;;;;1.45;100.00;101124.68;1814153;79;21045;-89
2022/11/27 09:55:02;;;;;;;4.20;3.15;;;;;;;1.52;100.00;101122.16;1813510;79;21083;-89
2022/11/27 09:57:35;;;;;;;4.00;3.50;;;;;;;1.62;100.00;101118.87;1814234;79;21600;-90
2022/11/27 10:00:13;;;;;;;5.20;3.33;;;;;;;1.67;100.00;101122.41;1813959;79;21132;-92
2022/11/27 10:02:41;;;;;;;4.80;3.35;;;;;;;1.71;100.00;101121.61;1804891;79;21033;-91
2022/11/27 10:05:24;;;;;;;5.97;3.47;;;;;;;1.79;100.00;101116.09;1814941;79;21129;-89
2022/11/27 10:08:09;;;;;;;3.72;3.00;;;;;;;1.67;100.00;101118.52;1803944;79;21068;-88
2022/11/27 10:10:53;;;;;;;3.65;2.70;;;;;;;1.93;100.00;101120.62;1814184;79;21021;-88
2022/11/27 14:34:55;;;;;;;8.23;5.60;;;;;;;-0.77;100.00;101125.29;1790332;78;22766;-93
2022/11/27 14:37:25;;;;;;;8.40;5.80;;;;;;;0.62;100.00;101118.03;1745757;81;20961;-91
2022/11/27 14:39:54;;;;;;;;;;;;;;;0.89;100.00;101110.73;1736830;81;21225;-93
2022/11/27 14:42:24;;;;;;;6.58;4.72;;;;;;;0.80;100.00;101111.42;1734538;79;20173;-91
2022/11/27 14:45:09;;;;;;;7.53;4.92;;;;;;;1.03;100.00;101117.89;1714423;79;28461;-92
2022/11/27 14:47:44;;;;;;;7.12;4.35;;;;;;;0.97;100.00;101108.73;1780934;77;20854;-92
2022/11/27 14:50:12;;;;;;;12.35;4.50;;;;;;;1.29;100.00;101114.90;1779649;77;20832;-93
2022/11/27 14:52:57;;;;;;;6.10;4.12;;;;;;;1.43;100.00;101118.59;1761483;79;21199;-91
2022/11/27 14:55:30;;;;;;;9.53;5.87;;;;;;;1.67;100.00;101121.98;1758161;79;87819;-66
2022/11/27 14:57:57;;;;;;;6.62;4.47;;;;;;;1.83;100.00;101126.98;1773817;80;20999;-66
2022/11/27 15:00:28;;;;;;;6.55;4.47;;;;;;;1.94;100.00;101128.87;1772853;80;21040;-66
2022/11/27 15:02:55;;;;;;;6.00;3.77;;;;;;;1.94;100.00;101126.28;1774258;80;21048;-66
2022/11/27 15:05:25;;;;;;;7.50;4.58;;;;;;;2.01;100.00;101125.51;1723859;80;21220;-64
2022/11/27 15:07:55;;;;;;;7.87;4.25;;;;;;;2.07;100.00;101125.56;1774250;80;21008;-65
2022/11/27 15:10:33;;;;;;;6.20;3.92;;;;;;;2.07;100.00;101117.77;1774167;80;21035;-66
2022/11/27 15:13:02;;;;;;;5.05;4.17;;;;;;;2.16;100.00;101124.83;1772528;80;21009;-65
2022/11/27 15:15:33;;;;;;;5.67;4.08;;;;;;;2.27;100.00;101118.91;1774819;79;21025;-65
2022/11/27 15:18:02;;;;;;;4.53;3.50;;;;;;;2.33;100.00;101115.97;1792358;79;21139;-66
2022/11/27 15:20:41;;;;;;;3.90;3.30;;;;;;;2.20;100.00;101119.69;1794604;79;21049;-65
2022/11/27 15:23:18;;;;;;;6.12;4.58;;;;;;;2.30;100.00;101112.47;1803633;79;21671;-65
2022/11/27 15:26:04;;;;;;;7.78;4.97;;;;;;;2.35;100.00;101113.83;1804059;79;21009;-65
2022/11/27 15:28:53;;;;;;;9.35;5.90;;;;;;;2.39;100.00;101107.79;1801154;79;21552;-65
2022/11/27 15:31:28;;;;;;;10.30;6.47;;;;;;;2.43;100.00;101111.31;1798222;79;21473;-66
2022/11/27 15:34:01;;;;;;;9.55;6.30;;;;;;;2.49;100.00;101112.70;1772553;80;21095;-66
2022/11/27 15:36:45;;;;;;;11.03;7.05;;;;;;;2.47;100.00;101107.91;1734970;80;21095;-66
2022/11/27 15:39:22;;;;;;;8.13;5.70;;;;;;;2.52;100.00;101110.12;1743766;82;21941;-65
2022/11/27 15:41:54;;;;;;;10.05;6.78;;;;;;;2.50;100.00;101117.03;1743240;81;21127;-66
2022/11/27 15:44:22;;;;;;;13.90;8.90;;;;;;;2.53;100.00;101113.15;1742645;81;22151;-66
2022/11/27 15:46:49;;;;;;;14.55;7.80;;;;;;;2.53;100.00;101113.15;1741270;81;21047;-66
2022/11/27 15:49:18;;;;;;;12.55;7.92;;;;;;;2.56;100.00;101117.11;1742184;81;21221;-66
2022/11/27 15:51:45;;;;;;;12.47;7.53;;;;;;;2.55;100.00;101106.25;1741405;81;21080;-65
2022/11/27 15:54:13;;;;;;;15.88;9.40;;;;;;;2.62;100.00;101108.09;1742575;82;21088;-66
2022/11/27 15:56:40;;;;;;;35.80;19.65;;;;;;;2.63;100.00;101112.85;1742916;82;21288;-66
2022/11/27 15:59:10;;;;;;;9.58;6.22;;;;;;;2.59;100.00;101112.37;1741820;81;21107;-66
2022/11/27 16:01:36;;;;;;;17.07;10.50;;;;;;;2.79;100.00;101112.16;1745840;81;21056;-66
2022/11/27 16:04:04;;;;;;;11.45;7.67;;;;;;;2.76;100.00;101115.14;1742116;81;21056;-66
2022/11/27 16:06:31;;;;;;;9.48;7.40;;;;;;;2.84;100.00;101112.20;1742046;81;21096;-66
2022/11/27 16:09:01;;;;;;;9.40;6.92;;;;;;;2.74;100.00;101107.34;1741328;81;21106;-65
2022/11/27 16:11:29;;;;;;;21.95;12.28;;;;;;;2.76;100.00;101111.23;1717482;83;21079;-65
2022/11/27 16:13:56;;;;;;;18.42;10.90;;;;;;;2.98;100.00;101112.34;1677686;84;21563;-65
2022/11/27 16:16:23;;;;;;;12.50;9.10;;;;;;;3.22;100.00;101111.69;1692021;83;21596;-65
2022/11/27 16:18:50;;;;;;;14.53;8.78;;;;;;;3.34;100.00;101111.37;1711089;83;21049;-66
2022/11/27 16:21:17;;;;;;;8.33;5.45;;;;;;;3.65;100.00;101115.94;1662415;85;21093;-66
2022/11/27 16:23:43;;;;;;;5.95;4.53;;;;;;;3.83;100.00;101113.46;1707500;83;21081;-66
2022/11/27 16:26:11;;;;;;;6.05;4.22;;;;;;;4.38;100.00;101115.05;1685780;83;21189;-66
2022/11/27 16:28:38;;;;;;;6.60;4.45;;;;;;;4.64;100.00;101114.27;1695508;84;21036;-66
2022/11/27 16:31:09;;;;;;;8.40;5.33;;;;;;;5.12;100.00;101115.23;1695398;84;21033;-65
2022/11/27 16:33:35;;;;;;;;;;;;;;;4.56;100.00;101117.30;1666497;85;21263;-65
2022/11/27 16:36:11;;;;;;;6.67;4.62;;;;;;;4.69;100.00;101116.89;1692667;83;20180;-65
2022/11/27 16:38:40;;;;;;;7.70;4.75;;;;;;;4.59;100.00;101113.39;1693172;82;21151;-65
2022/11/27 16:41:10;;;;;;;8.15;4.90;;;;;;;4.59;100.00;101113.39;1693272;84;21136;-65
2022/11/27 16:43:41;;;;;;;7.58;4.53;;;;;;;4.94;100.00;101117.83;1692610;83;21028;-65
2022/11/27 16:46:11;;;;;;;;;;;;;;;3.59;100.00;101122.00;1693980;83;21964;-65
2022/11/27 16:48:40;;;;;;;9.85;5.83;;;;;;;3.72;100.00;101125.54;1693207;84;20168;-65
2022/11/27 16:51:14;;;;;;;9.00;6.55;;;;;;;3.09;100.00;101129.80;1692606;84;21582;-65
2022/11/27 16:53:45;;;;;;;7.15;4.72;;;;;;;3.04;100.00;101130.20;1693799;84;21099;-65
2022/11/27 16:56:14;;;;;;;9.75;6.42;;;;;;;3.04;100.00;101130.20;1691613;83;21060;-65
2022/11/27 16:58:43;;;;;;;7.65;5.20;;;;;;;4.11;100.00;101134.47;1692599;83;22102;-65
2022/11/27 17:01:14;;;;;;;7.45;5.25;;;;;;;3.42;100.00;101127.48;1692742;84;21048;-65
2022/11/27 17:03:40;;;;;;;8.45;5.00;;;;;;;4.01;100.00;101127.48;1691760;83;21064;-66
2022/11/27 17:06:11;;;;;;;5.67;4.40;;;;;;;2.83;100.00;101137.76;1693275;83;21824;-65
2022/11/27 17:08:38;;;;;;;6.17;4.55;;;;;;;3.46;100.00;101134.03;1692403;83;21089;-66
2022/11/27 17:11:16;;;;;;;8.28;5.97;;;;;;;3.84;100.00;101132.13;1692331;83;21253;-66
2022/11/27 17:13:43;;;;;;;5.33;3.85;;;;;;;3.41;100.00;101122.72;1692483;83;21540;-66
2022/11/27 17:16:10;;;;;;;14.83;8.93;;;;;;;3.52;100.00;101130.19;1692692;83;21080;-66
2022/11/27 17:18:41;;;;;;;7.40;4.95;;;;;;;3.58;100.00;101129.34;1693280;83;21505;-65
2022/11/27 17:21:12;;;;;;;7.08;4.70;;;;;;;3.60;100.00;101127.63;1692926;83;21992;-65
2022/11/27 17:23:42;;;;;;;5.17;4.60;;;;;;;3.60;100.00;101126.33;1692913;83;21148;-66
2022/11/27 17:26:10;;;;;;;9.65;6.37;;;;;;;3.53;100.00;101131.05;1691771;83;21064;-65
2022/11/27 17:28:37;;;;;;;9.98;6.70;;;;;;;3.64;100.00;101127.23;1692684;83;21144;-65
2022/11/27 17:31:16;;;;;;;7.83;5.10;;;;;;;3.40;100.00;101128.77;1693199;83;21131;-66
2022/11/27 17:33:43;;;;;;;11.88;8.00;;;;;;;3.40;100.00;101134.41;1691931;83;21048;-65
2022/11/27 17:36:10;;;;;;;9.33;6.37;;;;;;;3.86;100.00;101134.31;1692575;83;21318;-65
2022/11/27 17:38:37;;;;;;;6.90;5.28;;;;;;;3.60;100.00;101133.28;1693003;84;21163;-65
2022/11/27 17:41:10;;;;;;;7.60;4.70;;;;;;;3.65;100.00;101131.57;1691899;84;21708;-66
2022/11/27 17:43:38;;;;;;;5.37;4.60;;;;;;;3.65;100.00;101135.48;1692258;84;21006;-66
2022/11/27 17:46:18;;;;;;;5.72;4.78;;;;;;;3.06;100.00;101135.39;1693136;83;21036;-65
2022/11/27 17:48:49;;;;;;;8.55;6.40;;;;;;;3.25;100.00;101131.27;1692970;83;22509;-65
2022/11/27 17:51:17;;;;;;;7.53;6.33;;;;;;;2.87;100.00;101137.81;1692758;83;21119;-66
2022/11/27 17:53:45;;;;;;;5.28;4.42;;;;;;;2.86;100.00;101136.52;1692738;83;21109;-66
2022/11/27 17:56:17;;;;;;;6.17;4.60;;;;;;;2.97;100.00;101137.50;1692202;84;21563;-67
2022/11/27 17:58:43;;;;;;;7.42;5.20;;;;;;;2.89;100.00;101143.04;1692383;83;21588;-65
2022/11/27 18:01:23;;;;;;;7.45;5.35;;;;;;;2.96;100.00;101141.38;1692625;83;21803;-66
2022/11/27 18:03:54;;;;;;;8.10;6.22;;;;;;;2.99;100.00;101136.20;1692678;83;21108;-65
2022/11/27 18:06:21;;;;;;;7.83;5.20;;;;;;;3.16;100.00;101134.64;1670196;84;21572;-66
2022/11/27 18:08:48;;;;;;;6.53;5.58;;;;;;;2.86;100.00;101139.12;1692449;83;21564;-66
2022/11/27 18:11:19;;;;;;;8.23;6.03;;;;;;;2.91;100.00;101136.99;1692853;83;21116;-66
2022/11/27 18:13:47;;;;;;;10.30;6.62;;;;;;;3.04;100.00;101139.30;1692341;83;21323;-65
2022/11/27 18:16:27;;;;;;;10.00;5.83;;;;;;;3.15;100.00;101144.19;1692363;84;21536;-65
2022/11/27 18:18:53;;;;;;;8.63;5.80;;;;;;;3.07;100.00;101140.62;1692210;83;21091;-66
2022/11/27 18:21:23;;;;;;;13.53;8.18;;;;;;;3.12;100.00;101141.53;1692107;83;22183;-65
2022/11/27 18:23:52;;;;;;;7.72;5.97;;;;;;;3.19;100.00;101139.00;1691916;84;21047;-65
